createdAt,value
2023-03-24T00:02:01.606Z,95383.75
2023-03-24T00:04:30.801Z,95384.44
2023-03-24T00:06:57.686Z,95370.19
2023-03-24T00:09:24.615Z,95381.66
2023-03-24T00:11:51.499Z,95379.41
2023-03-24T00:14:23.745Z,95366.38
2023-03-24T00:16:54.906Z,95359.84
2023-03-24T00:19:22.811Z,95350.50
2023-03-24T00:21:49.675Z,95344.22
2023-03-24T00:24:21.560Z,95336.19
2023-03-24T00:26:50.994Z,95341.88
2023-03-24T00:29:18.091Z,95348.94
2023-03-24T00:31:44.992Z,95336.00
2023-03-24T00:34:13.042Z,95318.75
2023-03-24T00:36:42.257Z,95309.41
2023-03-24T00:39:11.418Z,95308.50
2023-03-24T00:41:45.283Z,95312.78
2023-03-24T00:44:19.091Z,95309.88
2023-03-24T00:46:55.720Z,95302.50
2023-03-24T00:49:42.290Z,95311.16
2023-03-24T00:52:20.828Z,95318.06
2023-03-24T00:54:49.697Z,95317.28
2023-03-24T00:57:26.041Z,95316.63
2023-03-24T00:59:58.018Z,95307.28
2023-03-24T01:02:29.322Z,95323.06
2023-03-24T01:05:02.439Z,95310.75
2023-03-24T01:07:32.770Z,95316.50
2023-03-24T01:10:04.400Z,95315.75
2023-03-24T01:12:37.176Z,95315.59
2023-03-24T01:15:13.393Z,95330.03
2023-03-24T01:17:47.389Z,95327.81
2023-03-24T01:20:15.260Z,95337.94
2023-03-24T01:22:46.486Z,95328.63
2023-03-24T01:25:21.476Z,95304.66
2023-03-24T01:27:52.527Z,95333.00
2023-03-24T01:30:25.741Z,95319.31
2023-03-24T01:32:58.623Z,95291.09
2023-03-24T01:35:29.284Z,95317.28
2023-03-24T01:38:07.104Z,95303.72
2023-03-24T01:40:39.064Z,95310.28
2023-03-24T01:43:07.613Z,95300.16
2023-03-24T01:45:40.714Z,95293.78
2023-03-24T01:48:13.688Z,95293.78
2023-03-24T01:50:43.827Z,95295.09
2023-03-24T01:53:11.375Z,95287.91
2023-03-24T01:55:43.907Z,95285.03
2023-03-24T01:58:14.700Z,95282.03
2023-03-24T02:00:55.558Z,95276.34
2023-03-24T02:03:43.161Z,95287.03
2023-03-24T02:06:12.332Z,95289.84
2023-03-24T02:08:48.849Z,95294.84
2023-03-24T02:11:15.935Z,95287.41
2023-03-24T02:13:52.881Z,95290.19
2023-03-24T02:16:47.384Z,95304.66
2023-03-24T02:19:17.453Z,95294.56
2023-03-24T02:21:49.629Z,95283.91
2023-03-24T02:24:37.113Z,95291.09
2023-03-24T02:27:10.888Z,95291.16
2023-03-24T02:30:02.226Z,95289.75
2023-03-24T02:32:54.661Z,95291.78
2023-03-24T02:35:29.890Z,95294.66
2023-03-24T02:38:31.733Z,95296.84
2023-03-24T02:41:04.044Z,95297.56
2023-03-24T02:43:49.481Z,95284.69
2023-03-24T02:46:42.863Z,95296.09
2023-03-24T02:49:46.047Z,95298.34
2023-03-24T02:52:19.125Z,95283.28
2023-03-24T02:55:01.109Z,95262.25
2023-03-24T02:57:45.154Z,95273.22
2023-03-24T03:00:43.311Z,95265.78
2023-03-24T03:03:23.791Z,95273.06
2023-03-24T03:05:59.585Z,95277.41
2023-03-24T03:08:30.686Z,95275.19
2023-03-24T03:11:11.549Z,95271.53
2023-03-24T03:13:44.009Z,95270.16
2023-03-24T03:16:19.159Z,95270.91
2023-03-24T03:18:58.059Z,95257.28
2023-03-24T03:21:27.350Z,95256.63
2023-03-24T03:24:02.562Z,95282.47
2023-03-24T03:26:32.932Z,95262.97
2023-03-24T03:29:09.454Z,95254.41
2023-03-24T03:31:44.876Z,95253.66
2023-03-24T03:34:38.053Z,95245.88
2023-03-24T03:37:26.053Z,95233.53
2023-03-24T03:40:02.957Z,95238.69
2023-03-24T03:42:33.418Z,95214.09
2023-03-24T03:45:00.592Z,95226.44
2023-03-24T03:47:27.693Z,95199.78
2023-03-24T03:49:59.402Z,95191.84
2023-03-24T03:52:26.243Z,95183.03
2023-03-24T03:54:54.077Z,95173.00
2023-03-24T03:57:21.057Z,95178.13
2023-03-24T04:00:15.444Z,95178.06
2023-03-24T04:03:07.762Z,95173.72
2023-03-24T04:05:46.600Z,95177.38
2023-03-24T04:08:35.234Z,95171.75
2023-03-24T04:11:23.202Z,95171.03
2023-03-24T04:14:41.286Z,95170.38
2023-03-24T04:18:11.710Z,95163.19
2023-03-24T04:21:08.218Z,95170.31
2023-03-24T04:24:05.510Z,95173.94
2023-03-24T04:26:55.312Z,95172.53
2023-03-24T04:29:37.109Z,95163.94
2023-03-24T04:32:14.632Z,95165.38
2023-03-24T04:34:46.464Z,95168.97
2023-03-24T04:37:38.369Z,95171.16
2023-03-24T04:40:17.397Z,95176.81
2023-03-24T04:42:56.165Z,95172.47
2023-03-24T04:45:36.312Z,95167.59
2023-03-24T04:48:08.911Z,95172.47
2023-03-24T04:50:54.980Z,95164.00
2023-03-24T04:53:22.828Z,95172.63
2023-03-24T04:55:49.620Z,95173.88
2023-03-24T04:58:25.282Z,95167.31
2023-03-24T05:00:58.813Z,95169.38
2023-03-24T05:03:29.256Z,95171.50
2023-03-24T05:05:56.770Z,95179.41
2023-03-24T05:08:25.864Z,95164.34
2023-03-24T05:10:52.619Z,95167.91
2023-03-24T05:13:19.674Z,95185.31
2023-03-24T05:15:53.855Z,95192.50
2023-03-24T05:18:41.969Z,95193.16
2023-03-24T05:21:09.071Z,95204.63
2023-03-24T05:23:39.189Z,95193.66
2023-03-24T05:26:08.972Z,95198.09
2023-03-24T05:28:58.321Z,95205.25
2023-03-24T05:31:29.978Z,95215.38
2023-03-24T05:34:05.612Z,95214.84
2023-03-24T05:36:39.073Z,95227.91
2023-03-24T05:39:08.858Z,95235.75
2023-03-24T05:41:45.583Z,95245.75
2023-03-24T05:44:14.876Z,95238.53
2023-03-24T05:46:44.320Z,95224.28
2023-03-24T05:49:15.278Z,95226.53
2023-03-24T05:51:44.328Z,95222.97
2023-03-24T05:54:16.130Z,95212.31
2023-03-24T05:56:46.435Z,95222.31
2023-03-24T05:59:26.648Z,95219.44
2023-03-24T06:01:59.127Z,95216.47
2023-03-24T06:04:34.632Z,95230.16
2023-03-24T06:07:06.955Z,95225.28
2023-03-24T06:09:42.684Z,95225.28
2023-03-24T06:12:16.385Z,95213.16
2023-03-24T06:15:01.064Z,95207.69
2023-03-24T06:17:31.685Z,95195.63
2023-03-24T06:20:06.295Z,95193.56
2023-03-24T06:22:59.307Z,95172.78
2023-03-24T06:25:35.598Z,95176.53
2023-03-24T06:28:17.031Z,95170.78
2023-03-24T06:30:49.219Z,95181.44
2023-03-24T06:33:26.011Z,95184.28
2023-03-24T06:35:56.666Z,95187.34
2023-03-24T06:38:27.067Z,95184.50
2023-03-24T06:41:02.735Z,95178.78
2023-03-24T06:43:30.757Z,95181.72
2023-03-24T06:46:02.822Z,95164.53
2023-03-24T06:48:34.104Z,95155.88
2023-03-24T06:51:06.980Z,95165.97
2023-03-24T06:53:39.010Z,95163.84
2023-03-24T06:56:08.947Z,95160.31
2023-03-24T06:58:42.187Z,95171.75
2023-03-24T07:01:15.876Z,95172.47
2023-03-24T07:04:08.326Z,95179.66
2023-03-24T07:06:49.895Z,95177.50
2023-03-24T07:09:29.049Z,95183.97
2023-03-24T07:11:58.451Z,95184.06
2023-03-24T07:14:28.452Z,95174.59
2023-03-24T07:17:02.090Z,95175.44
2023-03-24T07:19:45.982Z,95188.38
2023-03-24T07:22:51.210Z,95204.72
2023-03-24T07:25:38.887Z,95201.94
2023-03-24T07:28:26.025Z,95206.88
2023-03-24T07:30:57.596Z,95214.69
2023-03-24T07:33:29.829Z,95232.31
2023-03-24T07:36:01.433Z,95226.38
2023-03-24T07:38:28.332Z,95242.38
2023-03-24T07:41:03.646Z,95252.34
2023-03-24T07:43:32.471Z,95262.94
2023-03-24T07:46:31.160Z,95275.81
2023-03-24T07:49:12.239Z,95273.56
2023-03-24T07:51:49.271Z,95269.94
2023-03-24T07:54:25.881Z,95292.25
2023-03-24T07:56:58.802Z,95290.13
2023-03-24T07:59:28.558Z,95284.50
2023-03-24T08:02:05.890Z,95286.66
2023-03-24T08:04:54.346Z,95285.38
2023-03-24T08:07:53.739Z,95278.13
2023-03-24T08:10:28.774Z,95296.94
2023-03-24T08:13:01.681Z,95298.41
2023-03-24T08:15:31.905Z,95279.56
2023-03-24T08:17:58.868Z,95288.34
2023-03-24T08:20:29.749Z,95292.81
2023-03-24T08:22:59.114Z,95288.44
2023-03-24T08:25:26.271Z,95281.28
2023-03-24T08:27:56.091Z,95283.59
2023-03-24T08:30:28.420Z,95290.91
2023-03-24T08:33:03.173Z,95289.59
2023-03-24T08:35:39.102Z,95290.22
2023-03-24T08:38:07.313Z,95296.81
2023-03-24T08:40:36.018Z,95278.69
2023-03-24T08:43:05.238Z,95294.13
2023-03-24T08:45:39.103Z,95304.22
2023-03-24T08:48:11.406Z,95308.94
2023-03-24T08:50:45.026Z,95319.63
2023-03-24T08:53:17.548Z,95313.16
2023-03-24T08:55:47.515Z,95321.09
2023-03-24T08:58:19.186Z,95332.66
2023-03-24T09:00:47.923Z,95324.09
2023-03-24T09:03:22.788Z,95332.75
2023-03-24T09:05:58.614Z,95324.72
2023-03-24T09:08:31.784Z,95324.84
2023-03-24T09:11:03.484Z,95324.16
2023-03-24T09:13:30.274Z,95331.41
2023-03-24T09:16:04.362Z,95328.53
2023-03-24T09:18:38.646Z,95341.31
2023-03-24T09:21:06.779Z,95336.28
2023-03-24T09:23:38.658Z,95339.22
2023-03-24T09:26:08.299Z,95335.66
2023-03-24T09:28:37.355Z,95337.88
2023-03-24T09:31:07.860Z,95340.06
2023-03-24T09:33:41.857Z,95342.94
2023-03-24T09:36:10.295Z,95344.25
2023-03-24T09:38:37.170Z,95351.59
2023-03-24T09:41:20.524Z,95366.66
2023-03-24T09:43:57.258Z,95360.09
2023-03-24T09:46:34.657Z,95377.38
2023-03-24T09:49:02.548Z,95372.97
2023-03-24T09:51:44.591Z,95371.38
2023-03-24T09:54:19.386Z,95377.78
2023-03-24T09:56:51.755Z,95383.56
2023-03-24T09:59:40.103Z,95382.09
2023-03-24T10:02:20.582Z,95379.94
2023-03-24T10:04:50.646Z,95383.34
2023-03-24T10:07:35.213Z,95385.38
2023-03-24T10:10:02.345Z,95388.00
2023-03-24T10:12:34.538Z,95386.63
2023-03-24T10:15:38.028Z,95393.69
2023-03-24T10:18:16.096Z,95395.84
2023-03-24T10:20:46.690Z,95387.19
2023-03-24T10:23:32.199Z,95397.25
2023-03-24T10:26:37.714Z,95392.75
2023-03-24T10:29:19.590Z,95402.75
2023-03-24T10:31:58.150Z,95410.59
2023-03-24T10:34:32.755Z,95409.16
2023-03-24T10:37:06.407Z,95394.06
2023-03-24T10:39:44.799Z,95399.59
2023-03-24T10:42:19.533Z,95409.91
2023-03-24T10:44:51.809Z,95414.22
2023-03-24T10:47:33.250Z,95411.22
2023-03-24T10:50:14.347Z,95406.91
2023-03-24T10:52:48.956Z,95399.59
2023-03-24T10:55:19.448Z,95388.25
2023-03-24T10:57:53.788Z,95396.69
2023-03-24T11:00:29.959Z,95404.63
2023-03-24T11:03:13.780Z,95407.03
2023-03-24T11:05:44.536Z,95409.19
2023-03-24T11:08:40.339Z,95402.16
2023-03-24T11:11:34.446Z,95407.13
2023-03-24T11:14:04.803Z,95399.59
2023-03-24T11:16:36.492Z,95413.00
2023-03-24T11:19:06.693Z,95404.34
2023-03-24T11:21:36.812Z,95398.66
2023-03-24T11:24:14.621Z,95393.53
2023-03-24T11:26:59.124Z,95399.13
2023-03-24T11:29:33.981Z,95405.72
2023-03-24T11:32:16.852Z,95385.91
2023-03-24T11:34:52.738Z,95387.31
2023-03-24T11:37:30.902Z,95377.78
2023-03-24T11:40:12.692Z,95385.13
2023-03-24T11:42:48.937Z,95352.09
2023-03-24T11:45:26.616Z,95347.00
2023-03-24T11:47:58.820Z,95339.81
2023-03-24T11:50:32.186Z,95334.97
2023-03-24T11:53:02.581Z,95332.19
2023-03-24T11:55:34.126Z,95331.63
2023-03-24T11:58:19.233Z,95339.59
2023-03-24T12:00:56.033Z,95307.75
2023-03-24T12:03:46.863Z,95332.03
2023-03-24T12:06:24.759Z,95315.72
2023-03-24T12:09:15.918Z,95317.34
2023-03-24T12:12:07.839Z,95304.41
2023-03-24T12:15:03.286Z,95304.75
2023-03-24T12:17:43.555Z,95294.25
2023-03-24T12:20:19.369Z,95292.81
2023-03-24T12:23:01.426Z,95308.28
2023-03-24T12:25:58.647Z,95299.88
2023-03-24T12:28:57.891Z,95295.03
2023-03-24T12:31:39.738Z,95282.16
2023-03-24T12:34:15.892Z,95285.22
2023-03-24T12:36:48.961Z,95291.69
2023-03-24T12:39:27.077Z,95299.06
2023-03-24T12:42:12.856Z,95301.38
2023-03-24T12:45:00.194Z,95302.19
2023-03-24T12:47:51.358Z,95318.16
2023-03-24T12:50:30.561Z,95308.88
2023-03-24T12:53:30.843Z,95309.69
2023-03-24T12:56:09.558Z,95309.03
2023-03-24T12:58:46.502Z,95320.59
2023-03-24T13:01:35.771Z,95318.56
2023-03-24T13:04:14.664Z,95310.00
2023-03-24T13:06:56.911Z,95307.94
2023-03-24T13:10:01.817Z,95315.91
2023-03-24T13:12:37.889Z,95311.47
2023-03-24T13:15:27.217Z,95306.53
2023-03-24T13:18:20.666Z,95302.59
2023-03-24T13:20:51.148Z,95295.78
2023-03-24T13:23:43.722Z,95288.91
2023-03-24T13:26:35.226Z,95290.00
2023-03-24T13:29:16.241Z,95283.44
2023-03-24T13:31:53.052Z,95279.03
2023-03-24T13:34:50.805Z,95280.94
2023-03-24T13:37:30.956Z,95276.53
2023-03-24T13:40:13.088Z,95274.41
2023-03-24T13:43:04.851Z,95280.16
2023-03-24T13:45:48.034Z,95264.25
2023-03-24T13:48:42.032Z,95255.06
2023-03-24T13:51:40.073Z,95252.22
2023-03-24T13:54:18.267Z,95263.63
2023-03-24T13:57:02.944Z,95260.78
2023-03-24T13:59:42.751Z,95266.56
2023-03-24T14:02:23.303Z,95252.22
2023-03-24T14:05:30.106Z,95241.44
2023-03-24T14:08:06.120Z,95225.66
2023-03-24T14:10:48.964Z,95212.75
2023-03-24T14:13:16.373Z,95217.72
2023-03-24T14:15:51.407Z,95235.00
2023-03-24T14:18:24.499Z,95235.66
2023-03-24T14:21:00.123Z,95236.31
2023-03-24T14:23:58.434Z,95229.81
2023-03-24T14:26:27.812Z,95222.56
2023-03-24T14:28:56.624Z,95231.22
2023-03-24T14:31:30.283Z,95224.69
2023-03-24T14:34:20.511Z,95221.75
2023-03-24T14:37:01.518Z,95214.72
2023-03-24T14:39:41.817Z,95208.19
2023-03-24T14:42:35.630Z,95197.44
2023-03-24T14:45:30.320Z,95179.44
2023-03-24T14:48:03.283Z,95168.53
2023-03-24T14:50:41.268Z,95166.41
2023-03-24T14:53:21.280Z,95171.38
2023-03-24T14:55:49.091Z,95168.41
2023-03-24T14:58:36.773Z,95199.47
2023-03-24T15:01:08.029Z,95208.72
2023-03-24T15:03:49.968Z,95220.97
2023-03-24T15:06:19.258Z,95216.72
2023-03-24T15:08:58.679Z,95218.97
2023-03-24T15:11:30.353Z,95218.78
2023-03-24T15:14:00.617Z,95206.63
2023-03-24T15:16:32.859Z,95216.72
2023-03-24T15:19:10.688Z,95224.47
2023-03-24T15:21:58.535Z,95226.59
2023-03-24T15:24:36.296Z,95221.53
2023-03-24T15:27:08.733Z,95230.97
2023-03-24T15:29:44.577Z,95233.09
2023-03-24T15:32:22.340Z,95236.00
2023-03-24T15:34:57.424Z,95235.16
2023-03-24T15:37:40.599Z,95232.16
2023-03-24T15:40:29.856Z,95235.63
2023-03-24T15:43:00.919Z,95256.47
2023-03-24T15:45:36.343Z,95249.94
2023-03-24T15:48:11.593Z,95259.13
2023-03-24T15:50:54.151Z,95263.50
2023-03-24T15:53:27.898Z,95263.50
2023-03-24T15:56:25.348Z,95260.53
2023-03-24T15:58:57.273Z,95272.03
2023-03-24T16:01:36.640Z,95284.09
2023-03-24T16:04:15.522Z,95285.69
2023-03-24T16:06:54.884Z,95298.38
2023-03-24T16:09:27.812Z,95287.81
2023-03-24T16:11:57.191Z,95303.56
2023-03-24T16:14:32.660Z,95312.38
2023-03-24T16:17:06.868Z,95307.53
2023-03-24T16:19:36.187Z,95310.25
2023-03-24T16:22:13.056Z,95303.53
2023-03-24T16:24:44.650Z,95320.19
2023-03-24T16:27:19.752Z,95323.00
2023-03-24T16:29:51.237Z,95321.38
2023-03-24T16:32:23.057Z,95333.59
2023-03-24T16:34:52.866Z,95322.53
2023-03-24T16:37:19.624Z,95315.09
2023-03-24T16:39:46.453Z,95289.00
2023-03-24T16:42:15.532Z,95291.47
2023-03-24T16:44:47.716Z,95311.34
2023-03-24T16:47:16.783Z,95286.50
2023-03-24T16:49:43.541Z,95272.97
2023-03-24T16:52:16.104Z,95285.69
2023-03-24T16:54:46.493Z,95295.34
2023-03-24T16:57:17.783Z,95282.44
2023-03-24T16:59:46.820Z,95267.41
2023-03-24T17:02:15.953Z,95250.97
2023-03-24T17:04:45.413Z,95241.16
2023-03-24T17:07:14.679Z,95242.56
2023-03-24T17:09:41.596Z,95258.03
2023-03-24T17:12:13.118Z,95270.03
2023-03-24T17:14:45.437Z,95290.84
2023-03-24T17:17:12.486Z,95307.84
2023-03-24T17:19:43.046Z,95304.88
2023-03-24T17:22:17.471Z,95308.44
2023-03-24T17:24:50.143Z,95290.34
2023-03-24T17:27:23.223Z,95294.41
2023-03-24T17:29:52.270Z,95294.28
2023-03-24T17:32:22.343Z,95299.94
2023-03-24T17:34:56.424Z,95324.09
2023-03-24T17:37:29.896Z,95324.03
2023-03-24T17:39:59.315Z,95313.41
2023-03-24T17:42:28.559Z,95308.41
2023-03-24T17:45:00.137Z,95284.88
2023-03-24T17:47:27.032Z,95287.75
2023-03-24T17:49:58.646Z,95293.47
2023-03-24T17:52:25.923Z,95296.84
2023-03-24T17:54:52.733Z,95315.47
2023-03-24T17:57:19.501Z,95297.50
2023-03-24T17:59:51.899Z,95306.94
2023-03-24T18:02:24.378Z,95301.22
2023-03-24T18:04:51.154Z,95301.16
2023-03-24T18:07:23.193Z,95306.88
2023-03-24T18:09:50.283Z,95303.16
2023-03-24T18:12:22.970Z,95319.78
2023-03-24T18:14:54.507Z,95326.16
2023-03-24T18:17:26.211Z,95334.13
2023-03-24T18:19:55.334Z,95328.53
2023-03-24T18:22:24.808Z,95329.00
2023-03-24T18:24:53.950Z,95332.56
2023-03-24T18:27:23.315Z,95333.47
2023-03-24T18:29:54.880Z,95329.75
2023-03-24T18:32:24.350Z,95344.84
2023-03-24T18:35:00.954Z,95341.78
2023-03-24T18:37:34.519Z,95348.97
2023-03-24T18:40:01.546Z,95360.47
2023-03-24T18:42:28.478Z,95360.41
2023-03-24T18:44:58.260Z,95355.31
2023-03-24T18:47:30.104Z,95347.72
2023-03-24T18:50:01.909Z,95344.78
2023-03-24T18:52:33.207Z,95331.97
2023-03-24T18:55:02.924Z,95325.56
2023-03-24T18:57:33.499Z,95331.22
2023-03-24T19:00:05.756Z,95344.00
2023-03-24T19:02:34.952Z,95348.78
2023-03-24T19:05:05.331Z,95363.63
2023-03-24T19:07:37.221Z,95358.03
2023-03-24T19:10:06.278Z,95373.84
2023-03-24T19:12:40.844Z,95387.31
2023-03-24T19:15:10.252Z,95378.81
2023-03-24T19:17:42.331Z,95386.47
2023-03-24T19:20:12.345Z,95385.03
2023-03-24T19:22:48.998Z,95382.34
2023-03-24T19:25:18.846Z,95388.13
2023-03-24T19:27:50.648Z,95393.66
2023-03-24T19:30:18.515Z,95389.03
2023-03-24T19:32:48.175Z,95386.81
2023-03-24T19:35:15.456Z,95413.47
2023-03-24T19:37:47.344Z,95409.59
2023-03-24T19:40:18.934Z,95409.41
2023-03-24T19:42:46.783Z,95410.41
2023-03-24T19:45:20.492Z,95423.25
2023-03-24T19:47:51.983Z,95430.19
2023-03-24T19:50:21.425Z,95443.97
2023-03-24T19:52:55.708Z,95415.78
2023-03-24T19:55:22.487Z,95418.63
2023-03-24T19:57:51.506Z,95432.41
2023-03-24T20:00:21.343Z,95424.41
2023-03-24T20:02:52.685Z,95410.88
2023-03-24T20:05:22.082Z,95419.03
2023-03-24T20:07:55.480Z,95427.69
2023-03-24T20:10:22.572Z,95434.84
2023-03-24T20:12:55.659Z,95429.13
2023-03-24T20:15:24.822Z,95438.28
2023-03-24T20:17:56.305Z,95417.38
2023-03-24T20:20:26.410Z,95411.25
2023-03-24T20:22:55.877Z,95396.44
2023-03-24T20:25:27.453Z,95402.59
2023-03-24T20:27:56.440Z,95402.22
2023-03-24T20:30:28.909Z,95379.09
2023-03-24T20:32:56.988Z,95406.84
2023-03-24T20:35:26.317Z,95406.69
2023-03-24T20:37:55.576Z,95402.31
2023-03-24T20:40:30.144Z,95395.75
2023-03-24T20:42:59.473Z,95390.81
2023-03-24T20:45:31.499Z,95377.72
2023-03-24T20:48:03.641Z,95391.50
2023-03-24T20:50:36.867Z,95366.38
2023-03-24T20:53:03.745Z,95362.34
2023-03-24T20:55:32.600Z,95367.91
2023-03-24T20:58:08.269Z,95369.50
2023-03-24T21:00:42.159Z,95354.00
2023-03-24T21:03:16.256Z,95371.56
2023-03-24T21:05:47.894Z,95373.09
2023-03-24T21:08:19.529Z,95369.31
2023-03-24T21:10:48.853Z,95372.03
2023-03-24T21:13:18.137Z,95372.91
2023-03-24T21:15:47.888Z,95392.34
2023-03-24T21:18:17.704Z,95380.22
2023-03-24T21:21:03.875Z,95389.50
2023-03-24T21:23:39.430Z,95382.84
2023-03-24T21:26:08.433Z,95384.84
2023-03-24T21:28:40.057Z,95386.22
2023-03-24T21:31:18.191Z,95416.91
2023-03-24T21:33:45.672Z,95405.38
2023-03-24T21:36:15.742Z,95391.38
2023-03-24T21:38:49.906Z,95404.19
2023-03-24T21:41:21.468Z,95399.13
2023-03-24T21:43:51.445Z,95410.69
2023-03-24T21:46:27.854Z,95412.88
2023-03-24T21:49:00.551Z,95416.53
2023-03-24T21:51:37.024Z,95417.34
2023-03-24T21:54:07.588Z,95424.81
2023-03-24T21:56:39.704Z,95443.31
2023-03-24T21:59:11.811Z,95436.00
2023-03-24T22:01:40.899Z,95429.31
2023-03-24T22:04:13.716Z,95448.44
2023-03-24T22:06:40.539Z,95443.44
2023-03-24T22:09:08.352Z,95446.38
2023-03-24T22:11:43.149Z,95444.25
2023-03-24T22:14:13.201Z,95447.13
2023-03-24T22:16:40.084Z,95446.44
2023-03-24T22:19:09.412Z,95448.50
2023-03-24T22:21:39.688Z,95454.72
2023-03-24T22:24:09.046Z,95467.16
2023-03-24T22:26:38.332Z,95471.34
2023-03-24T22:29:09.594Z,95475.81
2023-03-24T22:31:43.716Z,95467.31
2023-03-24T22:34:14.091Z,95465.28
2023-03-24T22:36:40.878Z,95473.03
2023-03-24T22:39:10.233Z,95479.06
2023-03-24T22:41:37.020Z,95476.22
2023-03-24T22:44:08.680Z,95481.28
2023-03-24T22:46:40.027Z,95476.75
2023-03-24T22:49:09.330Z,95478.22
2023-03-24T22:51:40.989Z,95481.13
2023-03-24T22:54:07.763Z,95467.97
2023-03-24T22:56:36.911Z,95486.09
2023-03-24T22:59:08.537Z,95480.91
2023-03-24T23:01:43.429Z,95478.13
2023-03-24T23:04:17.828Z,95483.91
2023-03-24T23:06:47.081Z,95488.31
2023-03-24T23:09:16.076Z,95475.19
2023-03-24T23:11:47.638Z,95476.97
2023-03-24T23:14:20.071Z,95492.78
2023-03-24T23:16:49.220Z,95491.41
2023-03-24T23:19:20.802Z,95493.19
2023-03-24T23:21:49.847Z,95489.06
2023-03-24T23:24:18.929Z,95494.50
2023-03-24T23:26:48.078Z,95503.25
2023-03-24T23:29:14.863Z,95495.72
2023-03-24T23:31:44.104Z,95510.22
2023-03-24T23:34:14.914Z,95508.13
2023-03-24T23:36:44.950Z,95509.59
2023-03-24T23:39:14.170Z,95505.34
2023-03-24T23:41:46.608Z,95505.09
2023-03-24T23:44:19.720Z,95510.97
2023-03-24T23:46:51.597Z,95510.97
2023-03-24T23:49:18.434Z,95512.28
2023-03-24T23:51:49.902Z,95502.81
2023-03-24T23:54:24.101Z,95510.06
2023-03-24T23:56:53.994Z,95508.84
2023-03-24T23:59:23.301Z,95513.66
